sensor_id;sensor_type;location;lat;lon;timestamp;P1;durP1;ratioP1;P2;durP2;ratioP2
48925;SDS011;39838;59.938;30.642;2023-10-31T00:01:57;11.43;;;7.10;;
48925;SDS011;39838;59.938;30.642;2023-10-31T00:04:24;11.25;;;7.22;;
48925;SDS011;39838;59.938;30.642;2023-10-31T00:06:53;13.00;;;6.97;;
48925;SDS011;39838;59.938;30.642;2023-10-31T00:09:20;11.60;;;6.13;;
48925;SDS011;39838;59.938;30.642;2023-10-31T00:11:48;9.38;;;5.97;;
48925;SDS011;39838;59.938;30.642;2023-10-31T00:14:15;9.95;;;5.97;;
48925;SDS011;39838;59.938;30.642;2023-10-31T00:16:42;12.07;;;6.88;;
48925;SDS011;39838;59.938;30.642;2023-10-31T00:19:10;8.63;;;5.15;;
48925;SDS011;39838;59.938;30.642;2023-10-31T00:21:37;7.85;;;5.20;;
48925;SDS011;39838;59.938;30.642;2023-10-31T00:24:06;8.50;;;5.50;;
48925;SDS011;39838;59.938;30.642;2023-10-31T00:26:34;9.25;;;5.57;;
48925;SDS011;39838;59.938;30.642;2023-10-31T00:29:01;10.57;;;6.38;;
48925;SDS011;39838;59.938;30.642;2023-10-31T00:31:28;9.98;;;6.03;;
48925;SDS011;39838;59.938;30.642;2023-10-31T00:33:56;8.13;;;5.15;;
48925;SDS011;39838;59.938;30.642;2023-10-31T00:36:23;10.20;;;5.47;;
48925;SDS011;39838;59.938;30.642;2023-10-31T00:38:50;9.65;;;5.88;;
48925;SDS011;39838;59.938;30.642;2023-10-31T00:41:19;8.65;;;5.32;;
48925;SDS011;39838;59.938;30.642;2023-10-31T00:43:46;8.52;;;4.63;;
48925;SDS011;39838;59.938;30.642;2023-10-31T00:46:14;9.15;;;6.07;;
48925;SDS011;39838;59.938;30.642;2023-10-31T00:48:41;13.40;;;6.93;;
48925;SDS011;39838;59.938;30.642;2023-10-31T00:51:09;9.57;;;6.18;;
48925;SDS011;39838;59.938;30.642;2023-10-31T00:53:36;9.52;;;6.05;;
48925;SDS011;39838;59.938;30.642;2023-10-31T00:56:04;11.90;;;6.93;;
48925;SDS011;39838;59.938;30.642;2023-10-31T00:58:33;7.55;;;4.70;;
48925;SDS011;39838;59.938;30.642;2023-10-31T01:01:01;9.40;;;5.82;;
48925;SDS011;39838;59.938;30.642;2023-10-31T01:03:28;11.57;;;6.57;;
48925;SDS011;39838;59.938;30.642;2023-10-31T01:05:55;10.77;;;6.63;;
48925;SDS011;39838;59.938;30.642;2023-10-31T01:08:23;10.60;;;6.32;;
48925;SDS011;39838;59.938;30.642;2023-10-31T01:10:50;11.77;;;6.93;;
48925;SDS011;39838;59.938;30.642;2023-10-31T01:13:17;9.65;;;5.90;;
48925;SDS011;39838;59.938;30.642;2023-10-31T01:15:46;10.27;;;6.45;;
48925;SDS011;39838;59.938;30.642;2023-10-31T01:18:14;10.95;;;6.47;;
48925;SDS011;39838;59.938;30.642;2023-10-31T01:20:41;11.13;;;6.60;;
48925;SDS011;39838;59.938;30.642;2023-10-31T01:23:08;12.48;;;7.50;;
48925;SDS011;39838;59.938;30.642;2023-10-31T01:25:36;10.80;;;6.65;;
48925;SDS011;39838;59.938;30.642;2023-10-31T01:28:03;10.95;;;6.35;;
48925;SDS011;39838;59.938;30.642;2023-10-31T01:30:30;10.65;;;5.97;;
48925;SDS011;39838;59.938;30.642;2023-10-31T01:33:00;11.85;;;7.18;;
48925;SDS011;39838;59.938;30.642;2023-10-31T01:35:27;11.65;;;6.28;;
48925;SDS011;39838;59.938;30.642;2023-10-31T01:37:54;10.85;;;6.68;;
48925;SDS011;39838;59.938;30.642;2023-10-31T01:40:22;10.88;;;6.57;;
48925;SDS011;39838;59.938;30.642;2023-10-31T01:42:49;11.85;;;7.25;;
48925;SDS011;39838;59.938;30.642;2023-10-31T01:45:17;11.98;;;6.93;;
48925;SDS011;39838;59.938;30.642;2023-10-31T01:47:44;12.65;;;7.03;;
48925;SDS011;39838;59.938;30.642;2023-10-31T01:50:16;11.32;;;6.65;;
48925;SDS011;39838;59.938;30.642;2023-10-31T01:52:45;12.45;;;7.18;;
48925;SDS011;39838;59.938;30.642;2023-10-31T01:55:13;14.68;;;7.65;;
48925;SDS011;39838;59.938;30.642;2023-10-31T01:57:41;13.50;;;8.10;;
48925;SDS011;39838;59.938;30.642;2023-10-31T02:00:11;12.25;;;7.38;;
48925;SDS011;39838;59.938;30.642;2023-10-31T02:02:40;11.80;;;7.30;;
48925;SDS011;39838;59.938;30.642;2023-10-31T02:05:08;13.27;;;7.32;;
48925;SDS011;39838;59.938;30.642;2023-10-31T02:07:37;11.32;;;6.90;;
48925;SDS011;39838;59.938;30.642;2023-10-31T02:10:05;15.13;;;7.95;;
48925;SDS011;39838;59.938;30.642;2023-10-31T02:12:33;12.60;;;7.30;;
48925;SDS011;39838;59.938;30.642;2023-10-31T02:15:04;14.43;;;7.88;;
48925;SDS011;39838;59.938;30.642;2023-10-31T02:17:34;12.48;;;7.43;;
48925;SDS011;39838;59.938;30.642;2023-10-31T02:20:02;11.50;;;6.88;;
48925;SDS011;39838;59.938;30.642;2023-10-31T02:22:32;13.40;;;7.50;;
48925;SDS011;39838;59.938;30.642;2023-10-31T02:25:00;12.73;;;7.10;;
48925;SDS011;39838;59.938;30.642;2023-10-31T02:27:29;13.15;;;6.57;;
48925;SDS011;39838;59.938;30.642;2023-10-31T02:29:57;13.23;;;7.35;;
48925;SDS011;39838;59.938;30.642;2023-10-31T02:32:24;14.82;;;7.47;;
48925;SDS011;39838;59.938;30.642;2023-10-31T02:34:51;12.80;;;6.97;;
48925;SDS011;39838;59.938;30.642;2023-10-31T02:37:18;12.68;;;6.80;;
48925;SDS011;39838;59.938;30.642;2023-10-31T02:39:47;11.05;;;6.63;;
48925;SDS011;39838;59.938;30.642;2023-10-31T02:42:14;13.85;;;6.70;;
48925;SDS011;39838;59.938;30.642;2023-10-31T02:44:42;13.05;;;7.40;;
48925;SDS011;39838;59.938;30.642;2023-10-31T02:47:09;10.35;;;6.57;;
48925;SDS011;39838;59.938;30.642;2023-10-31T02:49:36;10.32;;;6.72;;
48925;SDS011;39838;59.938;30.642;2023-10-31T02:52:04;13.82;;;6.63;;
48925;SDS011;39838;59.938;30.642;2023-10-31T02:54:31;13.05;;;6.78;;
48925;SDS011;39838;59.938;30.642;2023-10-31T02:57:00;12.40;;;7.43;;
48925;SDS011;39838;59.938;30.642;2023-10-31T02:59:27;13.50;;;6.75;;
48925;SDS011;39838;59.938;30.642;2023-10-31T03:01:56;10.63;;;6.63;;
48925;SDS011;39838;59.938;30.642;2023-10-31T03:04:24;12.65;;;6.80;;
48925;SDS011;39838;59.938;30.642;2023-10-31T03:06:51;14.45;;;7.38;;
48925;SDS011;39838;59.938;30.642;2023-10-31T03:09:18;10.85;;;6.88;;
48925;SDS011;39838;59.938;30.642;2023-10-31T03:11:46;12.32;;;7.40;;
48925;SDS011;39838;59.938;30.642;2023-10-31T03:14:14;11.40;;;6.68;;
48925;SDS011;39838;59.938;30.642;2023-10-31T03:16:42;14.25;;;6.97;;
48925;SDS011;39838;59.938;30.642;2023-10-31T03:19:09;13.50;;;7.28;;
48925;SDS011;39838;59.938;30.642;2023-10-31T03:21:36;13.27;;;7.55;;
48925;SDS011;39838;59.938;30.642;2023-10-31T03:24:04;13.80;;;7.78;;
48925;SDS011;39838;59.938;30.642;2023-10-31T03:26:32;14.85;;;8.02;;
48925;SDS011;39838;59.938;30.642;2023-10-31T03:28:59;16.20;;;8.30;;
48925;SDS011;39838;59.938;30.642;2023-10-31T03:31:28;13.95;;;8.18;;
48925;SDS011;39838;59.938;30.642;2023-10-31T03:33:55;15.07;;;7.93;;
48925;SDS011;39838;59.938;30.642;2023-10-31T03:36:23;13.90;;;8.05;;
48925;SDS011;39838;59.938;30.642;2023-10-31T03:38:50;14.60;;;7.50;;
48925;SDS011;39838;59.938;30.642;2023-10-31T03:41:17;17.90;;;8.75;;
48925;SDS011;39838;59.938;30.642;2023-10-31T03:43:45;14.70;;;8.50;;
48925;SDS011;39838;59.938;30.642;2023-10-31T03:46:12;17.25;;;8.48;;
48925;SDS011;39838;59.938;30.642;2023-10-31T03:48:41;14.02;;;8.00;;
48925;SDS011;39838;59.938;30.642;2023-10-31T03:51:09;15.55;;;7.70;;
48925;SDS011;39838;59.938;30.642;2023-10-31T03:53:36;15.02;;;8.10;;
48925;SDS011;39838;59.938;30.642;2023-10-31T03:56:04;15.40;;;7.97;;
48925;SDS011;39838;59.938;30.642;2023-10-31T03:58:31;14.65;;;7.47;;
48925;SDS011;39838;59.938;30.642;2023-10-31T04:00:59;14.30;;;7.25;;
48925;SDS011;39838;59.938;30.642;2023-10-31T04:03:26;13.00;;;6.90;;
48925;SDS011;39838;59.938;30.642;2023-10-31T04:05:55;10.32;;;6.85;;
48925;SDS011;39838;59.938;30.642;2023-10-31T04:08:22;13.23;;;6.68;;
48925;SDS011;39838;59.938;30.642;2023-10-31T04:10:50;12.93;;;6.35;;
48925;SDS011;39838;59.938;30.642;2023-10-31T04:13:17;11.88;;;7.00;;
48925;SDS011;39838;59.938;30.642;2023-10-31T04:15:44;10.85;;;6.60;;
48925;SDS011;39838;59.938;30.642;2023-10-31T04:18:12;11.27;;;6.63;;
48925;SDS011;39838;59.938;30.642;2023-10-31T04:20:39;10.68;;;6.63;;
48925;SDS011;39838;59.938;30.642;2023-10-31T04:23:08;12.75;;;6.63;;
48925;SDS011;39838;59.938;30.642;2023-10-31T04:25:37;12.07;;;6.78;;
48925;SDS011;39838;59.938;30.642;2023-10-31T04:28:04;12.38;;;7.50;;
48925;SDS011;39838;59.938;30.642;2023-10-31T04:30:32;12.60;;;7.20;;
48925;SDS011;39838;59.938;30.642;2023-10-31T04:32:59;13.98;;;7.13;;
48925;SDS011;39838;59.938;30.642;2023-10-31T04:35:26;12.05;;;6.70;;
48925;SDS011;39838;59.938;30.642;2023-10-31T04:37:54;12.63;;;6.78;;
48925;SDS011;39838;59.938;30.642;2023-10-31T04:40:23;12.10;;;7.35;;
48925;SDS011;39838;59.938;30.642;2023-10-31T04:42:50;18.25;;;7.63;;
48925;SDS011;39838;59.938;30.642;2023-10-31T04:45:18;16.60;;;7.45;;
48925;SDS011;39838;59.938;30.642;2023-10-31T04:47:45;15.88;;;7.53;;
48925;SDS011;39838;59.938;30.642;2023-10-31T04:50:12;13.20;;;7.53;;
48925;SDS011;39838;59.938;30.642;2023-10-31T04:52:40;13.20;;;8.05;;
48925;SDS011;39838;59.938;30.642;2023-10-31T04:55:08;13.35;;;7.35;;
48925;SDS011;39838;59.938;30.642;2023-10-31T04:57:36;13.05;;;7.80;;
48925;SDS011;39838;59.938;30.642;2023-10-31T05:00:04;12.48;;;7.60;;
48925;SDS011;39838;59.938;30.642;2023-10-31T05:02:33;14.70;;;7.88;;
48925;SDS011;39838;59.938;30.642;2023-10-31T05:05:01;14.75;;;8.00;;
48925;SDS011;39838;59.938;30.642;2023-10-31T05:07:30;14.95;;;7.65;;
48925;SDS011;39838;59.938;30.642;2023-10-31T05:09:58;14.73;;;8.00;;
48925;SDS011;39838;59.938;30.642;2023-10-31T05:12:26;17.23;;;8.32;;
48925;SDS011;39838;59.938;30.642;2023-10-31T05:14:54;16.30;;;8.30;;
48925;SDS011;39838;59.938;30.642;2023-10-31T05:17:22;14.23;;;8.32;;
48925;SDS011;39838;59.938;30.642;2023-10-31T05:19:49;14.73;;;7.95;;
48925;SDS011;39838;59.938;30.642;2023-10-31T05:22:16;12.90;;;8.18;;
48925;SDS011;39838;59.938;30.642;2023-10-31T05:24:43;13.15;;;7.80;;
48925;SDS011;39838;59.938;30.642;2023-10-31T05:27:11;13.70;;;8.07;;
48925;SDS011;39838;59.938;30.642;2023-10-31T05:29:38;13.20;;;7.47;;
48925;SDS011;39838;59.938;30.642;2023-10-31T05:32:07;13.07;;;7.82;;
48925;SDS011;39838;59.938;30.642;2023-10-31T05:34:34;11.13;;;6.95;;
48925;SDS011;39838;59.938;30.642;2023-10-31T05:37:02;11.43;;;6.95;;
48925;SDS011;39838;59.938;30.642;2023-10-31T05:39:31;10.70;;;6.65;;
48925;SDS011;39838;59.938;30.642;2023-10-31T05:41:59;14.57;;;7.38;;
48925;SDS011;39838;59.938;30.642;2023-10-31T05:44:26;10.85;;;6.63;;
48925;SDS011;39838;59.938;30.642;2023-10-31T05:46:53;11.23;;;6.90;;
48925;SDS011;39838;59.938;30.642;2023-10-31T05:49:22;10.65;;;6.57;;
48925;SDS011;39838;59.938;30.642;2023-10-31T05:51:50;9.02;;;6.00;;
48925;SDS011;39838;59.938;30.642;2023-10-31T05:54:18;10.93;;;6.10;;
48925;SDS011;39838;59.938;30.642;2023-10-31T05:56:45;10.98;;;6.68;;
48925;SDS011;39838;59.938;30.642;2023-10-31T05:59:13;9.85;;;6.10;;
48925;SDS011;39838;59.938;30.642;2023-10-31T06:01:41;10.57;;;6.28;;
48925;SDS011;39838;59.938;30.642;2023-10-31T06:04:09;10.45;;;6.35;;
48925;SDS011;39838;59.938;30.642;2023-10-31T06:06:38;12.55;;;6.68;;
48925;SDS011;39838;59.938;30.642;2023-10-31T06:09:05;10.52;;;6.32;;
48925;SDS011;39838;59.938;30.642;2023-10-31T06:11:34;12.73;;;7.45;;
48925;SDS011;39838;59.938;30.642;2023-10-31T06:14:01;12.75;;;7.00;;
48925;SDS011;39838;59.938;30.642;2023-10-31T06:16:30;13.38;;;7.20;;
48925;SDS011;39838;59.938;30.642;2023-10-31T06:18:57;12.70;;;7.10;;
48925;SDS011;39838;59.938;30.642;2023-10-31T06:21:25;12.40;;;7.57;;
48925;SDS011;39838;59.938;30.642;2023-10-31T06:23:53;14.57;;;7.30;;
48925;SDS011;39838;59.938;30.642;2023-10-31T06:26:21;11.98;;;7.35;;
48925;SDS011;39838;59.938;30.642;2023-10-31T06:28:48;13.77;;;7.38;;
48925;SDS011;39838;59.938;30.642;2023-10-31T06:31:15;12.63;;;6.97;;
48925;SDS011;39838;59.938;30.642;2023-10-31T06:33:42;10.75;;;6.85;;
48925;SDS011;39838;59.938;30.642;2023-10-31T06:36:10;10.75;;;5.95;;
48925;SDS011;39838;59.938;30.642;2023-10-31T06:38:37;9.85;;;6.32;;
48925;SDS011;39838;59.938;30.642;2023-10-31T06:41:06;11.13;;;6.22;;
48925;SDS011;39838;59.938;30.642;2023-10-31T06:43:33;11.48;;;6.57;;
48925;SDS011;39838;59.938;30.642;2023-10-31T06:46:01;12.75;;;6.85;;
48925;SDS011;39838;59.938;30.642;2023-10-31T06:48:30;12.73;;;6.90;;
48925;SDS011;39838;59.938;30.642;2023-10-31T06:50:58;13.25;;;6.20;;
48925;SDS011;39838;59.938;30.642;2023-10-31T06:53:25;10.18;;;6.43;;
48925;SDS011;39838;59.938;30.642;2023-10-31T06:55:52;11.68;;;6.70;;
48925;SDS011;39838;59.938;30.642;2023-10-31T06:58:21;10.80;;;6.30;;
48925;SDS011;39838;59.938;30.642;2023-10-31T07:00:48;10.88;;;6.47;;
48925;SDS011;39838;59.938;30.642;2023-10-31T07:03:17;11.10;;;6.32;;
48925;SDS011;39838;59.938;30.642;2023-10-31T07:05:44;10.90;;;6.22;;
48925;SDS011;39838;59.938;30.642;2023-10-31T07:08:11;10.98;;;6.40;;
48925;SDS011;39838;59.938;30.642;2023-10-31T07:10:39;12.35;;;6.75;;
48925;SDS011;39838;59.938;30.642;2023-10-31T07:13:06;9.80;;;6.45;;
48925;SDS011;39838;59.938;30.642;2023-10-31T07:15:35;10.30;;;6.40;;
48925;SDS011;39838;59.938;30.642;2023-10-31T07:18:04;9.18;;;6.30;;
48925;SDS011;39838;59.938;30.642;2023-10-31T07:20:32;12.18;;;6.40;;
48925;SDS011;39838;59.938;30.642;2023-10-31T07:23:00;10.02;;;6.68;;
48925;SDS011;39838;59.938;30.642;2023-10-31T07:25:27;10.25;;;6.50;;
48925;SDS011;39838;59.938;30.642;2023-10-31T07:27:54;9.60;;;6.07;;
48925;SDS011;39838;59.938;30.642;2023-10-31T07:30:22;8.88;;;5.93;;
48925;SDS011;39838;59.938;30.642;2023-10-31T07:32:50;10.00;;;6.22;;
48925;SDS011;39838;59.938;30.642;2023-10-31T07:35:18;9.57;;;6.32;;
48925;SDS011;39838;59.938;30.642;2023-10-31T07:37:45;8.88;;;6.20;;
48925;SDS011;39838;59.938;30.642;2023-10-31T07:40:13;9.50;;;6.28;;
48925;SDS011;39838;59.938;30.642;2023-10-31T07:42:40;9.05;;;6.22;;
48925;SDS011;39838;59.938;30.642;2023-10-31T07:45:08;11.25;;;6.15;;
48925;SDS011;39838;59.938;30.642;2023-10-31T07:47:36;9.95;;;6.28;;
48925;SDS011;39838;59.938;30.642;2023-10-31T07:50:05;10.00;;;6.00;;
48925;SDS011;39838;59.938;30.642;2023-10-31T07:52:33;9.93;;;5.70;;
48925;SDS011;39838;59.938;30.642;2023-10-31T07:55:00;8.57;;;6.03;;
48925;SDS011;39838;59.938;30.642;2023-10-31T07:57:30;10.77;;;6.18;;
48925;SDS011;39838;59.938;30.642;2023-10-31T07:59:57;10.38;;;5.85;;
48925;SDS011;39838;59.938;30.642;2023-10-31T08:02:25;10.00;;;5.88;;
48925;SDS011;39838;59.938;30.642;2023-10-31T08:04:52;11.35;;;6.03;;
48925;SDS011;39838;59.938;30.642;2023-10-31T08:07:21;9.00;;;6.20;;
48925;SDS011;39838;59.938;30.642;2023-10-31T08:09:49;11.80;;;6.70;;
48925;SDS011;39838;59.938;30.642;2023-10-31T08:12:16;9.90;;;6.32;;
48925;SDS011;39838;59.938;30.642;2023-10-31T08:14:43;11.98;;;6.55;;
48925;SDS011;39838;59.938;30.642;2023-10-31T08:17:11;12.85;;;6.75;;
48925;SDS011;39838;59.938;30.642;2023-10-31T08:19:38;10.25;;;6.40;;
48925;SDS011;39838;59.938;30.642;2023-10-31T08:22:06;10.68;;;6.32;;
48925;SDS011;39838;59.938;30.642;2023-10-31T08:24:34;12.65;;;6.75;;
48925;SDS011;39838;59.938;30.642;2023-10-31T08:27:02;11.57;;;6.28;;
48925;SDS011;39838;59.938;30.642;2023-10-31T08:29:31;10.48;;;6.50;;
48925;SDS011;39838;59.938;30.642;2023-10-31T08:31:58;13.95;;;6.20;;
48925;SDS011;39838;59.938;30.642;2023-10-31T08:34:25;11.13;;;6.18;;
48925;SDS011;39838;59.938;30.642;2023-10-31T08:36:52;11.13;;;6.50;;
48925;SDS011;39838;59.938;30.642;2023-10-31T08:39:21;12.68;;;6.82;;
48925;SDS011;39838;59.938;30.642;2023-10-31T08:41:51;10.68;;;6.53;;
48925;SDS011;39838;59.938;30.642;2023-10-31T08:44:18;12.30;;;6.65;;
48925;SDS011;39838;59.938;30.642;2023-10-31T08:46:46;10.38;;;6.28;;
48925;SDS011;39838;59.938;30.642;2023-10-31T08:49:14;11.60;;;6.70;;
48925;SDS011;39838;59.938;30.642;2023-10-31T08:51:42;12.80;;;5.70;;
48925;SDS011;39838;59.938;30.642;2023-10-31T08:54:10;11.93;;;6.70;;
48925;SDS011;39838;59.938;30.642;2023-10-31T08:56:38;9.88;;;5.75;;
48925;SDS011;39838;59.938;30.642;2023-10-31T08:59:06;10.25;;;5.95;;
48925;SDS011;39838;59.938;30.642;2023-10-31T09:01:33;10.25;;;6.00;;
48925;SDS011;39838;59.938;30.642;2023-10-31T09:04:01;9.95;;;5.68;;
48925;SDS011;39838;59.938;30.642;2023-10-31T09:06:28;11.40;;;6.05;;
48925;SDS011;39838;59.938;30.642;2023-10-31T09:08:55;9.40;;;6.40;;
48925;SDS011;39838;59.938;30.642;2023-10-31T09:11:23;9.35;;;5.72;;
48925;SDS011;39838;59.938;30.642;2023-10-31T09:13:50;12.48;;;6.30;;
48925;SDS011;39838;59.938;30.642;2023-10-31T09:16:19;10.82;;;6.45;;
48925;SDS011;39838;59.938;30.642;2023-10-31T09:18:46;10.93;;;5.82;;
48925;SDS011;39838;59.938;30.642;2023-10-31T09:21:14;15.85;;;6.50;;
48925;SDS011;39838;59.938;30.642;2023-10-31T09:23:41;11.63;;;6.32;;
48925;SDS011;39838;59.938;30.642;2023-10-31T09:26:08;12.57;;;6.22;;
48925;SDS011;39838;59.938;30.642;2023-10-31T09:28:36;8.80;;;5.60;;
48925;SDS011;39838;59.938;30.642;2023-10-31T09:31:04;10.50;;;5.90;;
48925;SDS011;39838;59.938;30.642;2023-10-31T09:33:33;13.95;;;5.93;;
48925;SDS011;39838;59.938;30.642;2023-10-31T09:36:00;9.50;;;6.15;;
48925;SDS011;39838;59.938;30.642;2023-10-31T09:38:28;11.95;;;6.43;;
48925;SDS011;39838;59.938;30.642;2023-10-31T09:40:55;9.80;;;6.20;;
48925;SDS011;39838;59.938;30.642;2023-10-31T09:43:22;12.25;;;6.65;;
48925;SDS011;39838;59.938;30.642;2023-10-31T09:45:50;11.30;;;6.53;;
48925;SDS011;39838;59.938;30.642;2023-10-31T09:48:18;12.52;;;6.15;;
48925;SDS011;39838;59.938;30.642;2023-10-31T09:50:48;13.48;;;6.70;;
48925;SDS011;39838;59.938;30.642;2023-10-31T09:53:16;15.10;;;6.28;;
48925;SDS011;39838;59.938;30.642;2023-10-31T09:55:43;10.15;;;5.90;;
48925;SDS011;39838;59.938;30.642;2023-10-31T09:58:12;11.45;;;6.35;;
48925;SDS011;39838;59.938;30.642;2023-10-31T10:00:39;10.52;;;6.10;;
48925;SDS011;39838;59.938;30.642;2023-10-31T10:03:07;12.40;;;6.25;;
48925;SDS011;39838;59.938;30.642;2023-10-31T10:05:35;11.05;;;6.32;;
48925;SDS011;39838;59.938;30.642;2023-10-31T10:08:07;10.73;;;6.30;;
48925;SDS011;39838;59.938;30.642;2023-10-31T10:10:39;10.38;;;5.75;;
48925;SDS011;39838;59.938;30.642;2023-10-31T10:13:06;11.85;;;6.30;;
48925;SDS011;39838;59.938;30.642;2023-10-31T10:15:42;12.57;;;6.22;;
48925;SDS011;39838;59.938;30.642;2023-10-31T10:18:10;9.82;;;5.90;;
48925;SDS011;39838;59.938;30.642;2023-10-31T10:20:53;10.38;;;6.00;;
48925;SDS011;39838;59.938;30.642;2023-10-31T10:23:23;9.30;;;5.95;;
48925;SDS011;39838;59.938;30.642;2023-10-31T10:25:51;9.85;;;6.40;;
48925;SDS011;39838;59.938;30.642;2023-10-31T10:28:19;11.52;;;6.07;;
48925;SDS011;39838;59.938;30.642;2023-10-31T10:30:47;13.55;;;6.07;;
48925;SDS011;39838;59.938;30.642;2023-10-31T10:33:14;10.13;;;5.95;;
48925;SDS011;39838;59.938;30.642;2023-10-31T10:35:42;11.15;;;5.75;;
48925;SDS011;39838;59.938;30.642;2023-10-31T10:38:11;10.75;;;5.78;;
48925;SDS011;39838;59.938;30.642;2023-10-31T10:40:41;8.68;;;5.30;;
48925;SDS011;39838;59.938;30.642;2023-10-31T10:43:12;9.57;;;5.80;;
48925;SDS011;39838;59.938;30.642;2023-10-31T10:45:43;9.82;;;5.65;;
48925;SDS011;39838;59.938;30.642;2023-10-31T10:48:12;10.90;;;5.22;;
48925;SDS011;39838;59.938;30.642;2023-10-31T10:50:43;9.13;;;5.72;;
48925;SDS011;39838;59.938;30.642;2023-10-31T10:53:20;10.88;;;5.70;;
48925;SDS011;39838;59.938;30.642;2023-10-31T10:55:52;11.75;;;5.93;;
48925;SDS011;39838;59.938;30.642;2023-10-31T10:58:26;9.68;;;5.50;;
48925;SDS011;39838;59.938;30.642;2023-10-31T11:01:00;10.90;;;6.22;;
48925;SDS011;39838;59.938;30.642;2023-10-31T11:03:28;9.50;;;6.25;;
48925;SDS011;39838;59.938;30.642;2023-10-31T11:05:56;8.30;;;5.80;;
48925;SDS011;39838;59.938;30.642;2023-10-31T11:08:24;12.23;;;6.68;;
48925;SDS011;39838;59.938;30.642;2023-10-31T11:10:54;10.73;;;5.90;;
48925;SDS011;39838;59.938;30.642;2023-10-31T11:13:22;12.15;;;6.53;;
48925;SDS011;39838;59.938;30.642;2023-10-31T11:15:53;16.45;;;6.05;;
48925;SDS011;39838;59.938;30.642;2023-10-31T11:18:23;9.82;;;5.55;;
48925;SDS011;39838;59.938;30.642;2023-10-31T11:20:53;8.80;;;5.57;;
48925;SDS011;39838;59.938;30.642;2023-10-31T11:23:20;9.02;;;5.32;;
48925;SDS011;39838;59.938;30.642;2023-10-31T11:25:49;9.95;;;5.30;;
48925;SDS011;39838;59.938;30.642;2023-10-31T11:28:20;9.52;;;5.43;;
48925;SDS011;39838;59.938;30.642;2023-10-31T11:30:48;10.80;;;6.10;;
48925;SDS011;39838;59.938;30.642;2023-10-31T11:33:18;11.25;;;5.65;;
48925;SDS011;39838;59.938;30.642;2023-10-31T11:35:49;8.60;;;5.40;;
48925;SDS011;39838;59.938;30.642;2023-10-31T11:38:17;8.02;;;5.30;;
48925;SDS011;39838;59.938;30.642;2023-10-31T11:40:58;8.13;;;5.30;;
48925;SDS011;39838;59.938;30.642;2023-10-31T11:43:51;6.93;;;5.00;;
48925;SDS011;39838;59.938;30.642;2023-10-31T11:46:19;9.30;;;5.18;;
48925;SDS011;39838;59.938;30.642;2023-10-31T11:48:50;6.50;;;4.70;;
48925;SDS011;39838;59.938;30.642;2023-10-31T11:51:19;9.70;;;5.20;;
48925;SDS011;39838;59.938;30.642;2023-10-31T11:53:46;8.65;;;5.03;;
48925;SDS011;39838;59.938;30.642;2023-10-31T11:56:15;5.97;;;4.25;;
48925;SDS011;39838;59.938;30.642;2023-10-31T11:58:42;7.28;;;4.70;;
48925;SDS011;39838;59.938;30.642;2023-10-31T12:01:11;7.00;;;4.78;;
48925;SDS011;39838;59.938;30.642;2023-10-31T12:03:39;7.82;;;4.40;;
48925;SDS011;39838;59.938;30.642;2023-10-31T12:06:07;7.82;;;4.50;;
48925;SDS011;39838;59.938;30.642;2023-10-31T12:08:36;6.55;;;4.40;;
48925;SDS011;39838;59.938;30.642;2023-10-31T12:11:05;6.05;;;4.40;;
48925;SDS011;39838;59.938;30.642;2023-10-31T12:13:34;7.00;;;4.75;;
48925;SDS011;39838;59.938;30.642;2023-10-31T12:16:02;7.43;;;4.70;;
48925;SDS011;39838;59.938;30.642;2023-10-31T12:18:32;7.25;;;4.80;;
48925;SDS011;39838;59.938;30.642;2023-10-31T12:21:00;7.85;;;4.97;;
48925;SDS011;39838;59.938;30.642;2023-10-31T12:23:28;6.93;;;4.53;;
48925;SDS011;39838;59.938;30.642;2023-10-31T12:25:55;7.53;;;4.93;;
48925;SDS011;39838;59.938;30.642;2023-10-31T12:28:23;7.68;;;5.25;;
48925;SDS011;39838;59.938;30.642;2023-10-31T12:30:52;6.90;;;4.85;;
48925;SDS011;39838;59.938;30.642;2023-10-31T12:33:21;7.35;;;4.70;;
48925;SDS011;39838;59.938;30.642;2023-10-31T12:35:52;7.07;;;5.03;;
48925;SDS011;39838;59.938;30.642;2023-10-31T12:38:24;8.23;;;5.22;;
48925;SDS011;39838;59.938;30.642;2023-10-31T12:40:52;9.55;;;5.40;;
48925;SDS011;39838;59.938;30.642;2023-10-31T12:43:20;7.95;;;5.35;;
48925;SDS011;39838;59.938;30.642;2023-10-31T12:45:48;6.57;;;4.95;;
48925;SDS011;39838;59.938;30.642;2023-10-31T12:48:15;9.85;;;5.63;;
48925;SDS011;39838;59.938;30.642;2023-10-31T12:50:45;8.68;;;5.57;;
48925;SDS011;39838;59.938;30.642;2023-10-31T12:53:22;6.15;;;4.60;;
48925;SDS011;39838;59.938;30.642;2023-10-31T12:55:50;8.63;;;5.05;;
48925;SDS011;39838;59.938;30.642;2023-10-31T12:58:19;8.02;;;5.13;;
48925;SDS011;39838;59.938;30.642;2023-10-31T13:00:48;7.30;;;5.18;;
48925;SDS011;39838;59.938;30.642;2023-10-31T13:03:17;7.93;;;5.00;;
48925;SDS011;39838;59.938;30.642;2023-10-31T13:05:45;7.78;;;5.40;;
48925;SDS011;39838;59.938;30.642;2023-10-31T13:08:13;7.32;;;5.45;;
48925;SDS011;39838;59.938;30.642;2023-10-31T13:10:43;7.47;;;5.28;;
48925;SDS011;39838;59.938;30.642;2023-10-31T13:13:11;8.23;;;5.18;;
48925;SDS011;39838;59.938;30.642;2023-10-31T13:15:38;9.70;;;5.72;;
48925;SDS011;39838;59.938;30.642;2023-10-31T13:18:05;7.53;;;4.78;;
48925;SDS011;39838;59.938;30.642;2023-10-31T13:20:36;7.93;;;4.95;;
48925;SDS011;39838;59.938;30.642;2023-10-31T13:23:03;10.10;;;5.20;;
48925;SDS011;39838;59.938;30.642;2023-10-31T13:25:34;6.30;;;4.55;;
48925;SDS011;39838;59.938;30.642;2023-10-31T13:28:01;6.63;;;4.30;;
48925;SDS011;39838;59.938;30.642;2023-10-31T13:30:32;6.40;;;4.80;;
48925;SDS011;39838;59.938;30.642;2023-10-31T13:32:59;6.82;;;4.82;;
48925;SDS011;39838;59.938;30.642;2023-10-31T13:35:26;7.47;;;4.63;;
48925;SDS011;39838;59.938;30.642;2023-10-31T13:37:53;7.22;;;4.80;;
48925;SDS011;39838;59.938;30.642;2023-10-31T13:40:21;7.13;;;4.32;;
48925;SDS011;39838;59.938;30.642;2023-10-31T13:42:49;6.43;;;4.68;;
48925;SDS011;39838;59.938;30.642;2023-10-31T13:45:17;6.50;;;4.47;;
48925;SDS011;39838;59.938;30.642;2023-10-31T13:47:44;8.48;;;4.63;;
48925;SDS011;39838;59.938;30.642;2023-10-31T13:50:11;8.30;;;5.18;;
48925;SDS011;39838;59.938;30.642;2023-10-31T13:52:39;6.68;;;4.47;;
48925;SDS011;39838;59.938;30.642;2023-10-31T13:55:06;8.90;;;5.43;;
48925;SDS011;39838;59.938;30.642;2023-10-31T13:57:34;8.40;;;4.68;;
48925;SDS011;39838;59.938;30.642;2023-10-31T14:00:03;7.82;;;4.80;;
48925;SDS011;39838;59.938;30.642;2023-10-31T14:02:33;6.68;;;4.53;;
48925;SDS011;39838;59.938;30.642;2023-10-31T14:05:01;7.93;;;4.90;;
48925;SDS011;39838;59.938;30.642;2023-10-31T14:07:29;10.38;;;5.50;;
48925;SDS011;39838;59.938;30.642;2023-10-31T14:09:57;7.13;;;4.93;;
48925;SDS011;39838;59.938;30.642;2023-10-31T14:12:24;7.13;;;5.10;;
48925;SDS011;39838;59.938;30.642;2023-10-31T14:14:52;8.20;;;4.85;;
48925;SDS011;39838;59.938;30.642;2023-10-31T14:17:21;7.65;;;4.75;;
48925;SDS011;39838;59.938;30.642;2023-10-31T14:19:51;7.18;;;4.50;;
48925;SDS011;39838;59.938;30.642;2023-10-31T14:22:19;6.55;;;4.43;;
48925;SDS011;39838;59.938;30.642;2023-10-31T14:24:46;6.05;;;4.30;;
48925;SDS011;39838;59.938;30.642;2023-10-31T14:27:13;6.82;;;4.55;;
48925;SDS011;39838;59.938;30.642;2023-10-31T14:29:40;6.22;;;4.15;;
48925;SDS011;39838;59.938;30.642;2023-10-31T14:32:08;6.50;;;4.40;;